Time;durP1;ratioP1;P1;durP2;ratioP2;P2;SDS_P1;SDS_P2;PMS_P1;PMS_P2;Temp;Humidity;BMP_temperature;BMP_pressure;BME280_temperature;BME280_humidity;BME280_pressure;Samples;Min_cycle;Max_cycle;Signal;HPM_P1;HPM_P2
2022/08/17 00:00:33;;;;;;;6.68;4.93;;;;;;;20.27;58.48;94528.91;5094773;27;20110;-86
2022/08/17 00:03:09;;;;;;;8.48;4.80;;;;;;;20.35;59.46;94551.69;5083287;27;20034;-87
2022/08/17 00:05:46;;;;;;;8.93;5.00;;;;;;;20.20;59.35;94533.34;5110575;27;20041;-87
2022/08/17 00:08:13;;;;;;;6.68;4.88;;;;;;;20.02;59.22;94514.53;5113716;27;20035;-86
2022/08/17 00:10:39;;;;;;;8.70;4.95;;;;;;;19.66;60.29;94525.22;5079241;28;20081;-86
2022/08/17 00:13:07;;;;;;;7.68;4.90;;;;;;;19.56;60.65;94517.63;5090075;27;20408;-86
2022/08/17 00:15:32;;;;;;;6.40;4.53;;;;;;;19.64;60.66;94546.47;5079772;27;20489;-87
2022/08/17 00:17:58;;;;;;;9.82;4.20;;;;;;;19.75;60.92;94558.31;5112754;27;20084;-86
2022/08/17 00:20:24;;;;;;;6.03;4.25;;;;;;;19.50;60.62;94511.28;5094620;28;20027;-84
2022/08/17 00:22:49;;;;;;;5.50;4.25;;;;;;;19.50;61.15;94532.34;5092046;28;20035;-86
2022/08/17 00:25:19;;;;;;;5.38;4.35;;;;;;;19.09;62.21;94530.31;5094281;28;20527;-86
2022/08/17 00:27:44;;;;;;;7.13;4.65;;;;;;;19.26;62.57;94554.59;5105447;27;20027;-86
2022/08/17 00:30:10;;;;;;;6.40;4.70;;;;;;;18.58;63.03;94485.56;5077992;28;20611;-87
2022/08/17 00:32:44;;;;;;;5.45;4.40;;;;;;;19.07;62.90;94547.31;5095121;27;20035;-87
2022/08/17 00:35:10;;;;;;;6.38;4.70;;;;;;;18.63;63.24;94548.97;5094271;28;20016;-86
2022/08/17 00:37:36;;;;;;;6.53;4.55;;;;;;;18.65;63.40;94538.28;5094915;27;20540;-87
2022/08/17 00:40:01;;;;;;;5.50;4.32;;;;;;;18.66;63.55;94556.47;5111563;28;20031;-87
2022/08/17 00:42:27;;;;;;;6.88;4.15;;;;;;;18.59;63.73;94524.03;5101877;27;20035;-87
2022/08/17 00:44:52;;;;;;;6.00;4.38;;;;;;;18.73;64.03;94548.69;5126755;27;20076;-87
2022/08/17 00:47:18;;;;;;;7.20;3.97;;;;;;;18.59;64.39;94534.56;5101394;27;20019;-87
2022/08/17 00:49:43;;;;;;;5.00;4.35;;;;;;;18.42;63.71;94480.53;5101301;28;20047;-87
2022/08/17 00:52:14;;;;;;;6.90;4.72;;;;;;;18.61;63.43;94537.81;5097418;27;20450;-86
2022/08/17 00:54:40;;;;;;;5.47;4.55;;;;;;;18.69;63.21;94534.25;5113704;28;20035;-87
2022/08/17 00:57:12;;;;;;;6.22;4.45;;;;;;;18.67;63.23;94537.09;5085572;28;20031;-85
2022/08/17 00:59:39;;;;;;;11.63;4.90;;;;;;;18.61;62.94;94510.69;5108700;28;20047;-87
2022/08/17 01:02:05;;;;;;;8.55;4.40;;;;;;;18.91;62.73;94533.34;5107426;28;20494;-86
2022/08/17 01:04:32;;;;;;;6.75;4.25;;;;;;;18.97;62.60;94537.06;5062282;28;20084;-87
2022/08/17 01:06:57;;;;;;;8.32;4.60;;;;;;;18.98;61.99;94528.16;5100975;28;20031;-85
2022/08/17 01:09:23;;;;;;;5.32;4.43;;;;;;;18.56;62.02;94487.59;5113291;27;20053;-86
2022/08/17 01:11:51;;;;;;;5.95;4.43;;;;;;;18.58;61.70;94479.50;5085405;27;20477;-82
2022/08/17 01:14:20;;;;;;;6.53;4.53;;;;;;;18.80;62.22;94536.44;5102556;28;20028;-86
2022/08/17 01:16:45;;;;;;;6.10;4.05;;;;;;;18.82;62.63;94539.72;5093850;27;20485;-86
2022/08/17 01:19:20;;;;;;;6.88;4.65;;;;;;;18.26;62.58;94471.00;5095894;28;20060;-86
2022/08/17 01:21:57;;;;;;;5.43;4.43;;;;;;;18.53;61.73;94487.94;5094761;27;20031;-85
2022/08/17 01:24:23;;;;;;;5.80;4.00;;;;;;;18.57;62.02;94504.97;5098238;27;20316;-86
2022/08/17 01:26:48;;;;;;;5.70;4.35;;;;;;;18.59;62.80;94523.22;5097759;27;20106;-86
2022/08/17 01:29:14;;;;;;;7.72;4.60;;;;;;;18.53;62.75;94519.50;5073863;27;20039;-86
2022/08/17 01:31:48;;;;;;;6.85;4.63;;;;;;;18.67;62.47;94526.56;5077914;27;20523;-85
2022/08/17 01:34:16;;;;;;;4.93;4.30;;;;;;;18.52;62.35;94488.94;5068719;27;20038;-86
2022/08/17 01:36:44;;;;;;;4.50;4.03;;;;;;;18.58;62.67;94496.09;5095176;27;20528;-86
2022/08/17 01:39:22;;;;;;;7.30;4.18;;;;;;;18.63;62.92;94525.28;5093120;27;20038;-86
2022/08/17 01:41:47;;;;;;;7.32;4.30;;;;;;;18.47;61.81;94478.16;5077590;27;20030;-86
2022/08/17 01:44:15;;;;;;;6.20;4.45;;;;;;;18.54;62.75;94526.41;5078933;27;20468;-86
2022/08/17 01:46:41;;;;;;;4.88;4.15;;;;;;;18.61;62.88;94522.03;5095851;27;20096;-85
2022/08/17 01:49:10;;;;;;;6.55;4.30;;;;;;;18.69;61.42;94514.06;5101072;27;20035;-87
2022/08/17 01:51:36;;;;;;;7.43;4.20;;;;;;;18.70;61.75;94518.31;5093913;27;20473;-86
2022/08/17 01:54:13;;;;;;;8.20;4.30;;;;;;;18.79;60.88;94529.56;5093226;27;20046;-86
2022/08/17 01:56:40;;;;;;;6.18;4.35;;;;;;;18.61;62.04;94494.91;5077639;27;20130;-86
2022/08/17 01:59:06;;;;;;;9.02;4.85;;;;;;;18.34;63.01;94517.44;5075888;27;20047;-86
2022/08/17 02:01:32;;;;;;;6.07;4.60;;;;;;;18.13;63.37;94481.34;5092401;27;20027;-87
2022/08/17 02:04:00;;;;;;;7.00;4.28;;;;;;;18.43;63.27;94521.59;5082168;27;20035;-86
2022/08/17 02:06:29;;;;;;;5.82;4.43;;;;;;;17.77;64.30;94482.81;5115902;27;20055;-87
2022/08/17 02:08:55;;;;;;;6.80;4.30;;;;;;;17.81;65.29;94541.94;5081599;27;20062;-86
2022/08/17 02:11:20;;;;;;;8.32;4.65;;;;;;;17.62;65.68;94510.88;5095431;27;20409;-83
2022/08/17 02:13:47;;;;;;;7.22;5.10;;;;;;;18.04;65.35;94547.13;5114969;27;20409;-87
2022/08/17 02:16:13;;;;;;;8.35;4.57;;;;;;;17.94;65.32;94528.19;5115884;27;20027;-87
2022/08/17 02:18:38;;;;;;;5.13;4.50;;;;;;;17.86;65.28;94515.13;5091215;27;20039;-87
2022/08/17 02:21:04;;;;;;;5.13;4.28;;;;;;;17.99;65.66;94549.47;5093128;27;20518;-87
2022/08/17 02:23:33;;;;;;;8.20;4.70;;;;;;;18.01;65.16;94539.59;5090438;27;20035;-87
2022/08/17 02:25:59;;;;;;;6.82;4.57;;;;;;;18.07;65.30;94545.97;5115521;27;20569;-87
2022/08/17 02:28:24;;;;;;;5.75;4.80;;;;;;;17.90;65.53;94531.34;5073366;27;20035;-87
2022/08/17 02:30:50;;;;;;;7.68;4.75;;;;;;;17.69;65.36;94501.31;5092944;27;20031;-87
2022/08/17 02:33:15;;;;;;;6.70;4.30;;;;;;;17.38;65.86;94499.59;5075707;27;20476;-87
2022/08/17 02:35:41;;;;;;;7.40;4.57;;;;;;;17.82;65.57;94545.38;5089717;27;20035;-87
2022/08/17 02:38:07;;;;;;;7.22;4.80;;;;;;;17.81;65.07;94530.63;5091261;27;20072;-87
2022/08/17 02:40:33;;;;;;;5.78;4.30;;;;;;;17.52;64.89;94491.91;5097873;27;20035;-84
2022/08/17 02:42:58;;;;;;;5.57;4.38;;;;;;;17.81;64.36;94520.91;5098971;27;20028;-87
2022/08/17 02:45:24;;;;;;;7.07;4.00;;;;;;;17.63;64.02;94494.13;5080494;27;20031;-81
2022/08/17 02:47:50;;;;;;;6.78;4.07;;;;;;;17.69;64.04;94503.94;5132828;27;20047;-87
2022/08/17 02:50:17;;;;;;;5.63;4.43;;;;;;;17.80;64.21;94531.59;5075944;27;20032;-85
2022/08/17 02:52:45;;;;;;;6.72;4.82;;;;;;;17.95;63.78;94548.22;5091569;27;20023;-87
2022/08/17 02:55:16;;;;;;;6.72;4.40;;;;;;;17.73;63.62;94492.06;5095549;27;20023;-87
2022/08/17 02:57:42;;;;;;;5.05;4.03;;;;;;;17.95;64.11;94542.16;5077694;27;20576;-87
2022/08/17 03:00:12;;;;;;;7.15;4.00;;;;;;;17.65;63.63;94494.75;5095150;27;20119;-87
2022/08/17 03:02:41;;;;;;;5.70;4.10;;;;;;;17.68;63.41;94496.22;5080226;27;20042;-86
2022/08/17 03:05:09;;;;;;;6.78;4.55;;;;;;;17.94;63.89;94551.00;5094142;27;20481;-87
2022/08/17 03:07:35;;;;;;;7.63;4.68;;;;;;;17.42;65.88;94514.00;5092292;27;20043;-87
2022/08/17 03:10:00;;;;;;;6.20;4.28;;;;;;;17.42;65.60;94495.63;5077449;27;20281;-86
2022/08/17 03:12:27;;;;;;;7.72;4.32;;;;;;;17.79;65.51;94554.41;5090938;27;20471;-87
2022/08/17 03:14:53;;;;;;;5.55;4.95;;;;;;;17.85;65.41;94552.91;5089239;27;20106;-87
2022/08/17 03:17:18;;;;;;;5.75;4.70;;;;;;;17.82;65.51;94556.69;5097267;27;20118;-87
2022/08/17 03:19:46;;;;;;;5.20;4.70;;;;;;;17.75;65.84;94558.38;5074946;27;20450;-87
2022/08/17 03:22:12;;;;;;;6.97;4.90;;;;;;;17.79;65.68;94550.97;5113737;27;20071;-87
2022/08/17 03:24:37;;;;;;;5.15;4.57;;;;;;;17.70;65.32;94565.97;5096286;27;20031;-86
2022/08/17 03:27:05;;;;;;;7.65;5.47;;;;;;;17.17;66.81;94534.34;5093891;27;20072;-83
2022/08/17 03:29:33;;;;;;;6.05;4.80;;;;;;;17.26;67.12;94553.47;5096900;27;20087;-87
2022/08/17 03:32:00;;;;;;;9.40;5.60;;;;;;;17.44;66.92;94566.34;5114634;27;20031;-87
2022/08/17 03:34:26;;;;;;;7.32;5.25;;;;;;;17.49;66.78;94565.78;5076980;27;20042;-87
2022/08/17 03:36:51;;;;;;;6.15;4.72;;;;;;;17.20;66.43;94514.81;5116646;27;20019;-87
2022/08/17 03:39:17;;;;;;;7.63;5.00;;;;;;;16.91;67.19;94510.22;5096670;27;20031;-88
2022/08/17 03:41:42;;;;;;;6.78;5.28;;;;;;;17.26;67.26;94563.97;5095673;27;20038;-81
2022/08/17 03:44:08;;;;;;;9.38;4.72;;;;;;;17.32;67.45;94563.28;5088296;27;20062;-87
2022/08/17 03:57:48;;;;;;;11.52;5.53;;;;;;;16.94;69.12;94578.94;5040184;28;20044;-88
2022/08/17 04:00:14;;;;;;;10.43;5.40;;;;;;;17.08;68.91;94592.31;5089939;27;20047;-87
2022/08/17 04:02:40;;;;;;;8.90;5.63;;;;;;;16.95;69.25;94591.06;5082299;27;20060;-87
2022/08/17 04:05:08;;;;;;;5.85;5.10;;;;;;;17.01;69.22;94600.03;5104443;27;20479;-87
2022/08/17 04:07:34;;;;;;;6.68;4.82;;;;;;;16.88;69.03;94550.78;5097364;27;20043;-87
2022/08/17 04:09:59;;;;;;;6.85;5.30;;;;;;;17.17;68.83;94601.78;5089535;27;20020;-82
2022/08/17 04:12:29;;;;;;;6.90;4.90;;;;;;;16.80;68.70;94527.19;5087785;27;20027;-87
2022/08/17 04:14:55;;;;;;;5.90;5.18;;;;;;;17.23;68.97;94601.09;5091746;27;20024;-81
2022/08/17 04:17:26;;;;;;;9.00;5.45;;;;;;;17.08;68.70;94552.97;5087502;27;20027;-87
2022/08/17 04:19:52;;;;;;;6.65;4.97;;;;;;;17.17;67.95;94559.78;5084149;27;20031;-87
2022/08/17 04:22:17;;;;;;;6.20;5.32;;;;;;;16.99;67.70;94546.91;5078812;27;20399;-86
2022/08/17 04:24:43;;;;;;;6.75;6.03;;;;;;;17.35;68.42;94604.13;5097300;27;20111;-87
2022/08/17 04:27:09;;;;;;;10.20;5.35;;;;;;;17.49;66.75;94598.13;5093148;28;20103;-84
2022/08/17 04:29:34;;;;;;;6.88;4.63;;;;;;;17.54;65.47;94550.34;5076995;28;20028;-87
2022/08/17 04:32:01;;;;;;;6.78;4.53;;;;;;;17.99;64.47;94586.25;5061254;28;20049;-87
2022/08/17 04:34:27;;;;;;;8.00;4.95;;;;;;;18.07;64.34;94588.81;5060015;28;20520;-84
2022/08/17 04:36:52;;;;;;;6.93;4.60;;;;;;;18.30;63.72;94614.25;5093438;28;20032;-82
2022/08/17 04:39:18;;;;;;;6.40;5.30;;;;;;;17.91;64.91;94578.44;5095284;27;20051;-86
2022/08/17 04:44:27;;;;;;;7.07;6.13;;;;;;;18.83;63.37;94606.31;5101467;27;20041;-87
2022/08/17 04:46:53;;;;;;;8.73;5.80;;;;;;;20.05;59.81;94588.78;5096167;28;20027;-87
2022/08/17 04:49:19;;;;;;;7.90;5.68;;;;;;;22.39;53.41;94591.31;5083103;28;20039;-87
2022/08/17 04:51:45;;;;;;;7.63;5.55;;;;;;;24.09;48.44;94567.19;5093367;28;20031;-86
2022/08/17 04:54:19;;;;;;;7.88;5.38;;;;;;;25.93;43.63;94601.75;5067304;28;20040;-87
2022/08/17 04:56:45;;;;;;;11.90;4.90;;;;;;;27.23;41.00;94609.84;5080924;28;20550;-87
2022/08/17 04:59:20;;;;;;;6.65;4.78;;;;;;;28.81;37.46;94580.59;5075662;28;20122;-86
2022/08/17 05:01:47;;;;;;;6.40;4.50;;;;;;;30.01;35.29;94615.50;5118409;28;20031;-87
2022/08/17 05:04:16;;;;;;;7.50;4.78;;;;;;;30.81;33.61;94588.03;5130514;28;20027;-87
2022/08/17 05:06:41;;;;;;;6.47;5.20;;;;;;;30.82;32.54;94603.09;5108532;28;20035;-86
2022/08/17 05:09:07;;;;;;;10.45;5.47;;;;;;;31.76;31.08;94577.19;5099662;28;20130;-87
2022/08/17 05:11:34;;;;;;;10.50;5.32;;;;;;;32.90;29.42;94577.81;5096068;28;20019;-87
2022/08/17 05:13:59;;;;;;;5.97;5.38;;;;;;;33.75;27.86;94585.06;5113639;28;20039;-87
2022/08/17 05:16:25;;;;;;;8.30;5.07;;;;;;;30.47;32.57;94566.88;5096370;28;20115;-87
2022/08/17 05:18:51;;;;;;;8.02;5.15;;;;;;;28.41;36.85;94618.16;5114806;28;20118;-87
2022/08/17 05:21:17;;;;;;;8.20;5.35;;;;;;;27.16;39.27;94592.13;5093368;28;20095;-87
2022/08/17 05:23:43;;;;;;;9.65;5.72;;;;;;;26.58;41.17;94608.97;5093963;28;20031;-87
2022/08/17 05:26:13;;;;;;;7.97;5.15;;;;;;;26.33;42.14;94614.47;5076251;28;20433;-80
2022/08/17 05:28:38;;;;;;;7.97;5.47;;;;;;;25.54;43.87;94613.72;5088246;28;20055;-87
2022/08/17 05:31:04;;;;;;;12.48;5.68;;;;;;;24.03;47.77;94626.41;5095638;28;20590;-83
2022/08/17 05:33:32;;;;;;;7.95;5.63;;;;;;;23.98;47.42;94578.50;5131868;28;20106;-87
2022/08/17 05:35:58;;;;;;;8.77;6.30;;;;;;;24.08;47.15;94610.66;5096491;28;20484;-87
2022/08/17 05:38:24;;;;;;;10.57;6.88;;;;;;;23.87;47.76;94577.34;5075304;28;20047;-87
2022/08/17 05:40:50;;;;;;;8.60;6.35;;;;;;;23.81;47.64;94594.13;5092714;28;20447;-86
2022/08/17 05:43:17;;;;;;;14.75;6.38;;;;;;;24.25;47.25;94634.81;5095534;28;20035;-86
2022/08/17 05:45:54;;;;;;;9.68;5.65;;;;;;;23.98;47.69;94632.34;5112625;28;20520;-86
2022/08/17 05:48:20;;;;;;;12.20;5.93;;;;;;;23.54;48.87;94594.25;5130481;28;20031;-88
2022/08/17 05:50:54;;;;;;;10.48;5.88;;;;;;;23.33;49.72;94629.00;5130019;28;20076;-87
2022/08/17 05:53:24;;;;;;;9.15;5.90;;;;;;;23.76;48.71;94617.81;5130931;28;20059;-87
2022/08/17 05:55:57;;;;;;;7.43;5.90;;;;;;;23.82;48.49;94595.72;5128400;27;20031;-87
2022/08/17 05:58:36;;;;;;;8.00;5.57;;;;;;;24.05;47.89;94598.63;5133073;27;20368;-87
2022/08/17 06:01:37;;;;;;;13.73;6.05;;;;;;;23.46;50.30;94628.13;5113408;27;20046;-86
2022/08/17 06:04:22;;;;;;;13.88;5.68;;;;;;;23.67;50.08;94614.56;5110249;27;20171;-87
2022/08/17 06:06:57;;;;;;;12.68;6.45;;;;;;;23.73;49.23;94576.63;5132980;27;20091;-87
2022/08/17 06:09:25;;;;;;;7.63;5.53;;;;;;;24.35;48.52;94623.72;5094854;27;20031;-87
2022/08/17 06:11:55;;;;;;;10.70;5.32;;;;;;;24.37;48.48;94603.88;5133681;27;20042;-88
2022/08/17 06:14:25;;;;;;;11.65;5.70;;;;;;;24.64;47.73;94614.31;5091042;27;20496;-88
2022/08/17 06:16:55;;;;;;;7.70;5.65;;;;;;;24.63;47.92;94602.06;5116325;27;20019;-88
2022/08/17 06:19:40;;;;;;;9.75;5.38;;;;;;;24.66;47.86;94597.13;5101942;28;20072;-88
2022/08/17 06:22:10;;;;;;;9.23;5.55;;;;;;;24.36;48.05;94567.78;5099197;27;20111;-88
2022/08/17 06:24:37;;;;;;;7.50;5.13;;;;;;;24.74;47.77;94594.19;5119635;27;20473;-88
2022/08/17 06:27:18;;;;;;;11.07;5.32;;;;;;;24.78;47.40;94586.59;5111320;27;20066;-88
2022/08/17 06:29:59;;;;;;;10.40;5.75;;;;;;;24.87;46.48;94587.09;5100256;27;20116;-89
2022/08/17 06:32:25;;;;;;;12.93;6.20;;;;;;;25.01;46.44;94583.25;5101076;27;20115;-89
2022/08/17 06:34:54;;;;;;;8.50;5.60;;;;;;;25.27;45.71;94602.59;5117440;27;20043;-89
2022/08/17 06:37:34;;;;;;;8.60;5.07;;;;;;;25.51;44.89;94628.28;5102252;27;20606;-86
2022/08/17 06:40:27;;;;;;;6.57;4.95;;;;;;;25.14;45.05;94627.47;5130171;27;20035;-89
2022/08/17 06:43:16;;;;;;;8.18;5.15;;;;;;;25.23;44.29;94625.38;5116450;27;20043;-88
2022/08/17 06:45:48;;;;;;;9.03;4.87;;;;;;;25.39;43.85;94612.28;5126871;27;20176;-89
2022/08/17 06:48:23;;;;;;;7.18;5.30;;;;;;;25.66;43.33;94619.94;5092660;27;20080;-89
2022/08/17 06:50:58;;;;;;;7.80;4.80;;;;;;;25.63;42.76;94580.47;5110830;27;20055;-89
2022/08/17 06:53:41;;;;;;;8.90;4.60;;;;;;;26.01;42.42;94619.25;5096374;27;20031;-89
2022/08/17 06:56:08;;;;;;;8.40;4.80;;;;;;;26.02;41.96;94604.91;5096402;27;20039;-89
2022/08/17 06:58:36;;;;;;;8.43;5.00;;;;;;;25.87;42.37;94589.38;5077195;27;20031;-89
2022/08/17 07:01:23;;;;;;;6.97;4.88;;;;;;;25.97;41.82;94620.75;5095265;27;20076;-88
2022/08/17 07:03:53;;;;;;;6.88;4.72;;;;;;;26.19;42.36;94619.19;5091890;27;20554;-89
2022/08/17 07:06:21;;;;;;;7.50;4.73;;;;;;;26.03;41.81;94574.59;5091178;27;20850;-88
2022/08/17 07:08:54;;;;;;;7.95;4.70;;;;;;;26.48;41.52;94624.66;5078531;27;20314;-88
2022/08/17 07:11:26;;;;;;;7.55;4.35;;;;;;;26.45;41.86;94606.50;5118645;27;20036;-89
2022/08/17 07:13:52;;;;;;;8.93;4.78;;;;;;;26.76;41.88;94623.19;5089485;28;20070;-89
2022/08/17 07:16:26;;;;;;;7.18;4.55;;;;;;;26.85;41.33;94617.28;5104950;27;20039;-86
2022/08/17 07:18:52;;;;;;;8.05;4.90;;;;;;;26.66;41.49;94581.97;5109680;27;20027;-89
2022/08/17 07:21:39;;;;;;;7.75;4.80;;;;;;;26.88;41.08;94584.84;5084415;27;20084;-84
2022/08/17 07:24:07;;;;;;;7.80;4.97;;;;;;;27.24;40.16;94622.13;5060875;27;20127;-88
2022/08/17 07:26:33;;;;;;;8.82;5.03;;;;;;;26.99;40.55;94606.38;5126076;27;20504;-88
2022/08/17 07:28:58;;;;;;;9.20;4.85;;;;;;;26.98;40.28;94583.44;5077916;28;20070;-88
2022/08/17 07:31:29;;;;;;;9.18;5.28;;;;;;;26.79;40.10;94566.78;5090996;28;20036;-89
2022/08/17 07:34:19;;;;;;;6.72;5.00;;;;;;;26.91;40.39;94578.22;5110932;27;20036;-89
2022/08/17 07:36:47;;;;;;;7.97;4.80;;;;;;;27.28;40.57;94604.63;5092401;27;20019;-88
2022/08/17 07:39:13;;;;;;;8.40;5.15;;;;;;;27.42;40.30;94602.50;5111589;27;20043;-88
2022/08/17 07:41:40;;;;;;;9.40;4.82;;;;;;;27.66;39.82;94608.56;5086641;27;20378;-89
2022/08/17 07:44:12;;;;;;;8.90;5.07;;;;;;;27.46;39.53;94561.78;5100926;27;20096;-89
2022/08/17 07:49:36;;;;;;;6.78;4.95;;;;;;;27.65;39.24;94572.25;5092811;27;20050;-89
2022/08/17 07:52:10;;;;;;;10.82;5.00;;;;;;;27.68;39.06;94563.78;5093659;27;20039;-89
2022/08/17 07:54:36;;;;;;;7.50;4.60;;;;;;;27.96;39.26;94601.13;5077478;27;20394;-89
2022/08/17 07:57:14;;;;;;;7.65;4.80;;;;;;;28.12;38.57;94612.88;5101425;27;20099;-90
2022/08/17 07:59:41;;;;;;;9.82;4.65;;;;;;;28.13;37.94;94593.13;5104174;27;20047;-89
2022/08/17 08:02:14;;;;;;;9.43;4.80;;;;;;;28.39;37.06;94601.56;5082770;27;20043;-88
2022/08/17 08:04:48;;;;;;;7.38;4.60;;;;;;;28.41;36.79;94604.81;5130368;27;20035;-88
2022/08/17 08:07:16;;;;;;;9.50;4.82;;;;;;;28.28;37.73;94603.28;5084973;27;20030;-82
2022/08/17 08:10:01;;;;;;;10.68;5.10;;;;;;;28.51;37.53;94597.78;5104141;28;20378;-89
2022/08/17 08:12:33;;;;;;;10.32;5.18;;;;;;;28.30;37.23;94593.16;5106514;27;20373;-90
2022/08/17 08:15:21;;;;;;;9.52;5.25;;;;;;;28.43;37.51;94592.06;5117908;27;20023;-90
2022/08/17 08:17:58;;;;;;;9.57;4.68;;;;;;;28.66;36.89;94599.06;5110368;27;20035;-84
2022/08/17 08:20:31;;;;;;;9.82;5.00;;;;;;;28.55;36.77;94557.22;5095186;27;20550;-89
2022/08/17 08:23:31;;;;;;;7.18;5.30;;;;;;;28.90;34.91;94591.66;5097403;27;20500;-89
2022/08/17 08:26:36;;;;;;;8.40;5.90;;;;;;;29.02;35.41;94583.53;5110204;27;20023;-88
2022/08/17 08:29:30;;;;;;;8.07;5.55;;;;;;;29.22;35.26;94591.03;5037537;28;20199;-87
2022/08/17 08:32:20;;;;;;;7.47;4.93;;;;;;;29.28;34.12;94592.72;5092570;28;20524;-87
2022/08/17 08:35:05;;;;;;;;;;;;;;;29.37;34.64;94589.38;5120187;27;20050;-86
2022/08/17 08:37:48;;;;;;;6.45;4.95;;;;;;;29.26;34.47;94584.16;5124076;27;19916;-87
2022/08/17 08:40:32;;;;;;;10.98;5.32;;;;;;;29.33;34.05;94590.91;5095898;27;20420;-88
2022/08/17 08:43:27;;;;;;;7.20;5.10;;;;;;;29.29;33.66;94573.75;5123533;27;20027;-88
2022/08/17 08:45:55;;;;;;;7.15;4.72;;;;;;;29.51;34.47;94580.97;5105340;27;20057;-91
2022/08/17 08:48:49;;;;;;;7.78;4.95;;;;;;;29.61;34.23;94586.41;5123219;27;20027;-87
2022/08/17 08:51:32;;;;;;;6.85;4.45;;;;;;;29.57;33.29;94562.03;5121123;27;20042;-84
2022/08/17 08:54:14;;;;;;;7.40;4.72;;;;;;;29.26;33.59;94552.06;5096568;28;20049;-86
2022/08/17 08:56:52;;;;;;;7.32;4.38;;;;;;;29.43;33.65;94560.00;5091346;27;20496;-88
2022/08/17 08:59:37;;;;;;;9.10;4.30;;;;;;;29.46;33.35;94560.31;5094983;28;20508;-88
2022/08/17 09:02:22;;;;;;;8.48;3.75;;;;;;;29.61;32.42;94565.00;5109044;28;20019;-88
2022/08/17 09:05:01;;;;;;;5.97;3.72;;;;;;;29.66;33.61;94573.13;5114646;28;20106;-87
2022/08/17 09:07:42;;;;;;;7.32;3.95;;;;;;;29.72;33.79;94573.97;5128357;27;20076;-87
2022/08/17 09:10:14;;;;;;;11.68;4.00;;;;;;;29.72;33.18;94556.03;5128114;27;20485;-89
2022/08/17 09:12:49;;;;;;;8.48;3.88;;;;;;;29.90;32.66;94573.63;5076988;28;20046;-82
2022/08/17 09:15:37;;;;;;;5.72;3.78;;;;;;;30.02;33.39;94573.47;5115197;28;20532;-85
2022/08/17 09:18:12;;;;;;;4.80;3.53;;;;;;;30.11;32.70;94571.94;5112279;28;20051;-86
2022/08/17 09:21:09;;;;;;;5.05;3.38;;;;;;;30.06;32.73;94553.97;5096501;28;20042;-88
2022/08/17 09:23:58;;;;;;;4.88;3.72;;;;;;;30.22;32.71;94565.63;5076805;28;20405;-86
2022/08/17 09:26:29;;;;;;;5.07;3.90;;;;;;;30.13;33.37;94561.78;5094627;28;20031;-86
2022/08/17 09:29:00;;;;;;;5.60;3.60;;;;;;;30.26;32.03;94568.63;5112505;28;20063;-86
2022/08/17 09:31:36;;;;;;;4.60;3.63;;;;;;;30.27;32.67;94562.19;5080882;27;20027;-86
2022/08/17 09:34:09;;;;;;;5.10;3.67;;;;;;;30.26;33.31;94565.94;5116493;27;20306;-86
2022/08/17 09:37:04;;;;;;;6.95;4.15;;;;;;;30.34;32.26;94561.97;5100899;27;20015;-86
2022/08/17 09:39:54;;;;;;;9.48;4.07;;;;;;;30.36;32.48;94549.94;5089897;27;20059;-86
2022/08/17 09:42:28;;;;;;;6.53;3.42;;;;;;;30.41;31.98;94558.00;5072408;27;20039;-86
2022/08/17 09:45:19;;;;;;;10.50;3.40;;;;;;;30.37;31.11;94569.47;5117494;27;20023;-86
2022/08/17 09:48:23;;;;;;;7.82;3.30;;;;;;;30.38;30.66;94571.13;5103076;27;20031;-86
2022/08/17 09:51:06;;;;;;;7.40;3.75;;;;;;;30.31;31.79;94541.03;5070690;27;20150;-85
2022/08/17 09:53:32;;;;;;;6.90;3.35;;;;;;;30.18;30.49;94518.97;5117422;27;20058;-87
2022/08/17 09:56:28;;;;;;;5.00;3.08;;;;;;;30.49;30.23;94557.53;5117770;27;20035;-86
2022/08/17 09:59:00;;;;;;;5.03;3.53;;;;;;;30.54;29.55;94547.94;5136012;27;20088;-86
2022/08/17 10:01:35;;;;;;;8.88;3.28;;;;;;;30.52;29.66;94553.53;5135724;27;20153;-86
2022/08/17 10:04:31;;;;;;;3.92;2.83;;;;;;;30.49;29.52;94554.03;5117510;27;20042;-86
2022/08/17 10:07:09;;;;;;;6.47;3.38;;;;;;;30.50;30.31;94548.41;5135674;27;20118;-86
2022/08/17 10:10:06;;;;;;;5.03;3.10;;;;;;;30.29;29.88;94517.22;5084485;27;20043;-86
2022/08/17 10:12:58;;;;;;;8.52;3.45;;;;;;;30.46;30.39;94535.81;5102696;27;20172;-86
2022/08/17 10:15:56;;;;;;;9.70;3.47;;;;;;;30.56;30.26;94543.91;5101174;27;20023;-86
2022/08/17 10:18:30;;;;;;;5.30;3.42;;;;;;;30.52;30.56;94536.66;5103499;27;20043;-86
2022/08/17 10:26:53;;;;;;;5.63;3.23;;;;;;;30.40;29.35;94507.38;5105666;27;20080;-86
2022/08/17 10:29:30;;;;;;;7.07;3.55;;;;;;;30.50;28.91;94515.47;5083413;27;20039;-86
2022/08/17 10:32:03;;;;;;;5.88;3.50;;;;;;;30.60;28.42;94525.44;5083870;27;20030;-87
2022/08/17 10:34:54;;;;;;;5.00;3.17;;;;;;;30.65;29.39;94528.97;5100708;27;20034;-87
2022/08/17 10:37:37;;;;;;;5.75;3.65;;;;;;;30.67;29.91;94523.34;5099352;27;20072;-86
2022/08/17 10:40:16;;;;;;;8.27;3.63;;;;;;;30.67;29.04;94524.16;5099941;27;20076;-86
2022/08/17 10:42:45;;;;;;;8.85;3.35;;;;;;;30.75;28.11;94519.34;5099515;27;20118;-87
2022/08/17 10:45:56;;;;;;;6.17;3.37;;;;;;;30.78;28.13;94521.50;5082984;27;20053;-86
2022/08/17 10:48:30;;;;;;;6.50;3.13;;;;;;;30.77;29.33;94517.22;5113808;27;20050;-86
2022/08/17 10:50:59;;;;;;;5.60;3.40;;;;;;;30.83;28.60;94503.63;5082658;27;20508;-86
2022/08/17 10:53:30;;;;;;;7.28;3.42;;;;;;;30.93;28.60;94510.91;5099720;27;20066;-87
2022/08/17 10:56:11;;;;;;;4.60;3.10;;;;;;;30.99;29.37;94504.50;5135050;27;20023;-88
2022/08/17 10:58:57;;;;;;;5.93;3.20;;;;;;;30.92;29.05;94498.56;5116050;27;20045;-87
2022/08/17 11:01:29;;;;;;;6.85;3.30;;;;;;;31.11;26.43;94507.75;5118679;27;20047;-87
2022/08/17 11:03:56;;;;;;;5.40;3.05;;;;;;;31.03;28.28;94505.56;5116130;27;20036;-86
2022/08/17 11:06:41;;;;;;;6.55;3.30;;;;;;;31.08;27.81;94502.13;5098954;27;20031;-86
2022/08/17 11:09:14;;;;;;;5.75;3.33;;;;;;;31.02;27.31;94498.59;5083031;27;20035;-87
2022/08/17 11:11:56;;;;;;;7.93;3.40;;;;;;;30.98;27.27;94497.53;5115985;27;20023;-87
2022/08/17 11:15:03;;;;;;;7.60;3.30;;;;;;;31.10;27.53;94503.47;5082944;27;20100;-87
2022/08/17 11:17:50;;;;;;;7.93;3.25;;;;;;;31.16;27.00;94502.41;5104867;27;20035;-87
2022/08/17 11:20:42;;;;;;;5.07;3.30;;;;;;;31.21;26.34;94503.50;5115794;27;20027;-85
2022/08/17 11:23:11;;;;;;;4.50;3.25;;;;;;;31.17;27.08;94504.03;5118713;27;20031;-87
2022/08/17 11:25:45;;;;;;;7.67;3.30;;;;;;;31.00;26.55;94473.13;5115607;27;20376;-86
2022/08/17 11:28:18;;;;;;;6.22;2.85;;;;;;;31.24;26.42;94511.03;5099512;27;20690;-86
2022/08/17 11:30:49;;;;;;;5.10;2.97;;;;;;;31.25;25.15;94509.94;5115537;27;20500;-86
2022/08/17 11:33:33;;;;;;;5.97;2.75;;;;;;;31.17;25.64;94509.41;5082265;27;20127;-86
2022/08/17 11:36:22;;;;;;;4.72;3.13;;;;;;;31.24;26.08;94513.72;5133684;27;20138;-87
2022/08/17 11:39:05;;;;;;;5.63;3.10;;;;;;;31.33;25.37;94515.59;5115569;27;20069;-87
2022/08/17 11:41:53;;;;;;;5.05;3.35;;;;;;;31.31;25.62;94498.16;5115167;27;20397;-87
2022/08/17 11:44:47;;;;;;;7.00;3.30;;;;;;;31.46;26.51;94511.66;5115488;27;20488;-87
2022/08/17 11:53:14;;;;;;;6.18;3.58;;;;;;;31.59;26.50;94515.69;5133408;27;20050;-87
2022/08/17 11:55:40;;;;;;;4.88;3.42;;;;;;;31.68;26.59;94526.72;5127429;27;20058;-87
2022/08/17 11:58:28;;;;;;;14.18;4.10;;;;;;;31.77;28.06;94528.63;5133241;27;20062;-87
2022/08/17 12:00:56;;;;;;;11.90;4.15;;;;;;;31.21;28.78;94485.53;5132628;27;20057;-87
2022/08/17 12:03:23;;;;;;;4.97;3.90;;;;;;;31.24;29.70;94527.94;5081267;27;20382;-88
2022/08/17 12:05:49;;;;;;;6.35;3.90;;;;;;;31.12;30.13;94532.69;5097450;27;20126;-88
2022/08/17 12:08:18;;;;;;;6.15;4.13;;;;;;;30.78;30.94;94533.03;5097690;27;20023;-88
2022/08/17 12:11:08;;;;;;;14.33;4.40;;;;;;;30.50;31.75;94556.44;5098024;27;20039;-87
2022/08/17 12:13:43;;;;;;;6.90;4.20;;;;;;;29.13;34.38;94548.69;5123036;27;20372;-87
2022/08/17 12:16:13;;;;;;;7.25;3.95;;;;;;;29.21;33.95;94549.31;5097837;27;20034;-87
2022/08/17 12:18:40;;;;;;;7.40;4.40;;;;;;;29.09;34.30;94533.41;5080404;27;20520;-87
2022/08/17 12:21:15;;;;;;;7.90;4.63;;;;;;;29.38;34.46;94550.84;5097611;27;20465;-87
2022/08/17 12:23:47;;;;;;;6.35;4.20;;;;;;;29.47;33.99;94548.53;5132502;27;20092;-87
2022/08/17 12:26:18;;;;;;;8.32;4.20;;;;;;;29.60;33.86;94544.66;5097836;27;20035;-87